シドニー の空港の天気 - METARとTAF

シドニー国際空港 ( YSSY / SYD ) - オーストラリア ニューサウスウェールズ州、Mascot
飛行場実況気象(Metar)
観測時間04/25 16:00 AEST (04/25 06:00 UTC)
風向・風速南 5m/s
視程10km以上
天気現象周辺でしゅう雨
少しの雲 雲底高度 300m
全天の4割程度の雲 雲底高度 550m
全天の8割程度の雲 雲底高度 1460m
気温21℃
湿度88%
気圧1014hPa
METARYSSY 250600Z 17010KT 9999 VCSH FEW010 SCT018 BKN048 21/19 Q1014
過去の天気等 Google飛行場航空写真 Wunderground天気予報

過去48時間のMETAR

飛行場予報(TAF)
発表時間: 4/25 15:09 AEST (4/25 05:09 UTC)
予報対象時間: 25日16時 AEST ~ 26日22時 AEST
風向・風速南 7m/s
視程10km以上
少しの雲 雲底高度 460m
全天の4割程度の雲 雲底高度 910m
25日19時 AEST から
風向・風速南南西 4m/s
視程10km以上
全天の4割程度の雲 雲底高度 610m
26日2時 AEST から
風向・風速西北西 3m/s
視程10km以上
少しの雲 雲底高度 550m
26日10時 AEST から
風向・風速南西 7m/s
視程10km以上
全天の4割程度の雲 雲底高度 760m
26日13時 AEST から
風向・風速南 9m/s
視程10km以上
全天の4割程度の雲 雲底高度 760m
TAF AMD YSSY 250509Z 2506/2612 18014KT 9999 FEW015 SCT030
FM250900 21008KT 9999 SCT020
FM251600 29006KT 9999 FEW018
FM260000 22014KT 9999 SCT025
FM260300 17018KT 9999 SCT025